sensor_id;sensor_type;location;lat;lon;timestamp;temperature;humidity
69281;SHT31;56392;51.082;17.080;2022-10-16T00:00:23;13.08;86.47
69281;SHT31;56392;51.082;17.080;2022-10-16T00:05:45;13.12;86.42
69281;SHT31;56392;51.082;17.080;2022-10-16T00:10:49;13.18;86.28
69281;SHT31;56392;51.082;17.080;2022-10-16T00:15:55;13.22;86.13
69281;SHT31;56392;51.082;17.080;2022-10-16T00:21:02;13.24;85.98
69281;SHT31;56392;51.082;17.080;2022-10-16T00:26:10;13.30;85.98
69281;SHT31;56392;51.082;17.080;2022-10-16T00:31:13;13.26;85.87
69281;SHT31;56392;51.082;17.080;2022-10-16T00:36:18;13.22;85.93
69281;SHT31;56392;51.082;17.080;2022-10-16T00:41:23;13.15;86.04
69281;SHT31;56392;51.082;17.080;2022-10-16T00:46:29;13.12;86.03
69281;SHT31;56392;51.082;17.080;2022-10-16T00:51:36;13.06;86.22
69281;SHT31;56392;51.082;17.080;2022-10-16T00:56:41;13.02;86.32
69281;SHT31;56392;51.082;17.080;2022-10-16T01:01:44;13.03;86.30
69281;SHT31;56392;51.082;17.080;2022-10-16T01:06:50;13.05;86.28
69281;SHT31;56392;51.082;17.080;2022-10-16T01:12:05;13.02;86.42
69281;SHT31;56392;51.082;17.080;2022-10-16T01:17:12;13.02;86.41
69281;SHT31;56392;51.082;17.080;2022-10-16T01:22:15;13.06;86.35
69281;SHT31;56392;51.082;17.080;2022-10-16T01:27:22;13.05;86.31
69281;SHT31;56392;51.082;17.080;2022-10-16T01:32:31;13.06;86.33
69281;SHT31;56392;51.082;17.080;2022-10-16T01:37:39;13.03;86.66
69281;SHT31;56392;51.082;17.080;2022-10-16T01:42:47;13.03;86.45
69281;SHT31;56392;51.082;17.080;2022-10-16T01:47:52;13.00;86.57
69281;SHT31;56392;51.082;17.080;2022-10-16T01:52:56;12.99;86.74
69281;SHT31;56392;51.082;17.080;2022-10-16T01:58:02;13.00;86.48
69281;SHT31;56392;51.082;17.080;2022-10-16T02:03:06;13.00;86.51
69281;SHT31;56392;51.082;17.080;2022-10-16T02:08:10;12.98;86.84
69281;SHT31;56392;51.082;17.080;2022-10-16T02:13:17;12.98;86.64
69281;SHT31;56392;51.082;17.080;2022-10-16T02:18:20;12.96;86.78
69281;SHT31;56392;51.082;17.080;2022-10-16T02:23:27;12.91;87.04
69281;SHT31;56392;51.082;17.080;2022-10-16T02:28:38;12.85;87.36
69281;SHT31;56392;51.082;17.080;2022-10-16T02:33:42;12.92;87.13
69281;SHT31;56392;51.082;17.080;2022-10-16T02:38:46;12.93;87.03
69281;SHT31;56392;51.082;17.080;2022-10-16T02:43:50;12.92;86.92
69281;SHT31;56392;51.082;17.080;2022-10-16T02:48:52;12.93;87.10
69281;SHT31;56392;51.082;17.080;2022-10-16T02:53:55;12.89;87.14
69281;SHT31;56392;51.082;17.080;2022-10-16T02:58:59;12.89;87.36
69281;SHT31;56392;51.082;17.080;2022-10-16T03:04:02;12.95;87.34
69281;SHT31;56392;51.082;17.080;2022-10-16T03:09:05;13.00;87.22
69281;SHT31;56392;51.082;17.080;2022-10-16T03:14:09;13.02;87.22
69281;SHT31;56392;51.082;17.080;2022-10-16T03:19:12;13.06;87.20
69281;SHT31;56392;51.082;17.080;2022-10-16T03:24:15;13.15;87.17
69281;SHT31;56392;51.082;17.080;2022-10-16T03:29:19;13.18;87.49
69281;SHT31;56392;51.082;17.080;2022-10-16T03:34:22;13.20;87.70
69281;SHT31;56392;51.082;17.080;2022-10-16T03:39:25;13.23;87.74
69281;SHT31;56392;51.082;17.080;2022-10-16T03:44:29;13.26;87.91
69281;SHT31;56392;51.082;17.080;2022-10-16T03:49:32;13.33;87.98
69281;SHT31;56392;51.082;17.080;2022-10-16T03:54:35;13.40;87.96
69281;SHT31;56392;51.082;17.080;2022-10-16T03:59:39;13.47;88.12
69281;SHT31;56392;51.082;17.080;2022-10-16T04:04:42;13.56;88.20
69281;SHT31;56392;51.082;17.080;2022-10-16T04:09:44;13.57;88.30
69281;SHT31;56392;51.082;17.080;2022-10-16T04:14:49;13.57;88.12
69281;SHT31;56392;51.082;17.080;2022-10-16T04:19:51;13.53;88.24
69281;SHT31;56392;51.082;17.080;2022-10-16T04:24:54;13.56;88.29
69281;SHT31;56392;51.082;17.080;2022-10-16T04:29:58;13.51;87.94
69281;SHT31;56392;51.082;17.080;2022-10-16T04:35:01;13.54;87.61
69281;SHT31;56392;51.082;17.080;2022-10-16T04:40:05;13.46;87.54
69281;SHT31;56392;51.082;17.080;2022-10-16T04:45:09;13.44;87.43
69281;SHT31;56392;51.082;17.080;2022-10-16T04:50:12;13.39;87.48
69281;SHT31;56392;51.082;17.080;2022-10-16T04:55:15;13.35;87.46
69281;SHT31;56392;51.082;17.080;2022-10-16T05:00:19;13.36;87.36
69281;SHT31;56392;51.082;17.080;2022-10-16T05:05:22;13.30;87.28
69281;SHT31;56392;51.082;17.080;2022-10-16T05:10:24;13.22;87.52
69281;SHT31;56392;51.082;17.080;2022-10-16T05:15:28;13.12;87.83
69281;SHT31;56392;51.082;17.080;2022-10-16T05:20:32;13.19;87.53
69281;SHT31;56392;51.082;17.080;2022-10-16T05:25:34;13.18;87.58
69281;SHT31;56392;51.082;17.080;2022-10-16T05:30:39;13.20;87.50
69281;SHT31;56392;51.082;17.080;2022-10-16T05:35:41;13.22;87.58
69281;SHT31;56392;51.082;17.080;2022-10-16T05:40:50;13.27;87.43
69281;SHT31;56392;51.082;17.080;2022-10-16T05:45:55;13.32;87.50
69281;SHT31;56392;51.082;17.080;2022-10-16T05:50:59;13.37;87.39
69281;SHT31;56392;51.082;17.080;2022-10-16T05:56:02;13.44;87.30
69281;SHT31;56392;51.082;17.080;2022-10-16T06:01:09;13.54;87.24
69281;SHT31;56392;51.082;17.080;2022-10-16T06:06:14;13.66;87.19
69281;SHT31;56392;51.082;17.080;2022-10-16T06:11:19;13.73;87.12
69281;SHT31;56392;51.082;17.080;2022-10-16T06:16:24;13.80;86.95
69281;SHT31;56392;51.082;17.080;2022-10-16T06:21:28;13.95;86.82
69281;SHT31;56392;51.082;17.080;2022-10-16T06:26:31;14.08;86.64
69281;SHT31;56392;51.082;17.080;2022-10-16T06:31:35;14.25;86.18
69281;SHT31;56392;51.082;17.080;2022-10-16T06:36:38;14.38;85.98
69281;SHT31;56392;51.082;17.080;2022-10-16T06:41:42;14.59;85.78
69281;SHT31;56392;51.082;17.080;2022-10-16T06:46:46;14.83;85.46
69281;SHT31;56392;51.082;17.080;2022-10-16T06:51:48;15.00;85.39
69281;SHT31;56392;51.082;17.080;2022-10-16T06:56:51;15.08;85.17
69281;SHT31;56392;51.082;17.080;2022-10-16T07:01:57;15.21;85.14
69281;SHT31;56392;51.082;17.080;2022-10-16T07:07:00;15.31;84.91
69281;SHT31;56392;51.082;17.080;2022-10-16T07:12:03;15.38;84.88
69281;SHT31;56392;51.082;17.080;2022-10-16T07:17:07;15.45;84.91
69281;SHT31;56392;51.082;17.080;2022-10-16T07:22:10;15.55;84.82
69281;SHT31;56392;51.082;17.080;2022-10-16T07:27:13;15.65;84.58
69281;SHT31;56392;51.082;17.080;2022-10-16T07:32:19;15.92;83.89
69281;SHT31;56392;51.082;17.080;2022-10-16T07:37:21;16.29;82.85
69281;SHT31;56392;51.082;17.080;2022-10-16T07:42:24;16.60;81.89
69281;SHT31;56392;51.082;17.080;2022-10-16T07:47:28;16.77;81.47
69281;SHT31;56392;51.082;17.080;2022-10-16T07:52:31;16.94;81.08
69281;SHT31;56392;51.082;17.080;2022-10-16T07:57:33;17.08;80.45
69281;SHT31;56392;51.082;17.080;2022-10-16T08:02:38;17.25;80.11
69281;SHT31;56392;51.082;17.080;2022-10-16T08:07:41;17.47;79.59
69281;SHT31;56392;51.082;17.080;2022-10-16T08:12:43;17.72;79.15
69281;SHT31;56392;51.082;17.080;2022-10-16T08:17:56;17.97;77.55
69281;SHT31;56392;51.082;17.080;2022-10-16T08:22:59;18.21;77.54
69281;SHT31;56392;51.082;17.080;2022-10-16T08:28:03;18.40;76.91
69281;SHT31;56392;51.082;17.080;2022-10-16T08:33:08;18.55;76.90
69281;SHT31;56392;51.082;17.080;2022-10-16T08:38:10;18.72;76.17
69281;SHT31;56392;51.082;17.080;2022-10-16T08:43:36;18.93;75.91
69281;SHT31;56392;51.082;17.080;2022-10-16T08:48:45;19.10;75.68
69281;SHT31;56392;51.082;17.080;2022-10-16T08:53:52;19.22;75.42
69281;SHT31;56392;51.082;17.080;2022-10-16T08:58:58;19.30;74.50
69281;SHT31;56392;51.082;17.080;2022-10-16T09:04:21;19.43;74.29
69281;SHT31;56392;51.082;17.080;2022-10-16T09:09:38;19.61;74.22
69281;SHT31;56392;51.082;17.080;2022-10-16T09:14:56;19.77;73.86
69281;SHT31;56392;51.082;17.080;2022-10-16T09:20:23;19.95;73.64
69281;SHT31;56392;51.082;17.080;2022-10-16T09:25:28;20.16;72.35
69281;SHT31;56392;51.082;17.080;2022-10-16T09:30:31;20.52;71.81
69281;SHT31;56392;51.082;17.080;2022-10-16T09:35:38;20.86;69.52
69281;SHT31;56392;51.082;17.080;2022-10-16T09:40:42;20.98;69.81
69281;SHT31;56392;51.082;17.080;2022-10-16T09:45:53;21.01;69.62
69281;SHT31;56392;51.082;17.080;2022-10-16T09:50:59;21.10;69.05
69281;SHT31;56392;51.082;17.080;2022-10-16T09:56:02;21.12;68.86
69281;SHT31;56392;51.082;17.080;2022-10-16T10:01:13;21.14;68.90
69281;SHT31;56392;51.082;17.080;2022-10-16T10:06:22;21.12;69.18
69281;SHT31;56392;51.082;17.080;2022-10-16T10:11:43;21.18;69.56
69281;SHT31;56392;51.082;17.080;2022-10-16T10:16:47;21.42;68.83
69281;SHT31;56392;51.082;17.080;2022-10-16T10:21:51;21.67;67.91
69281;SHT31;56392;51.082;17.080;2022-10-16T10:27:00;21.96;67.62
69281;SHT31;56392;51.082;17.080;2022-10-16T10:32:15;22.20;66.51
69281;SHT31;56392;51.082;17.080;2022-10-16T10:37:33;22.10;66.04
69281;SHT31;56392;51.082;17.080;2022-10-16T10:42:44;22.05;65.57
69281;SHT31;56392;51.082;17.080;2022-10-16T10:48:01;22.20;65.33
69281;SHT31;56392;51.082;17.080;2022-10-16T10:53:17;22.26;64.52
69281;SHT31;56392;51.082;17.080;2022-10-16T10:58:44;22.20;65.00
69281;SHT31;56392;51.082;17.080;2022-10-16T11:04:23;22.23;64.83
69281;SHT31;56392;51.082;17.080;2022-10-16T11:09:32;22.29;64.32
69281;SHT31;56392;51.082;17.080;2022-10-16T11:14:41;22.34;63.82
69281;SHT31;56392;51.082;17.080;2022-10-16T11:19:48;22.29;63.22
69281;SHT31;56392;51.082;17.080;2022-10-16T11:24:59;22.20;63.32
69281;SHT31;56392;51.082;17.080;2022-10-16T11:30:11;21.90;63.76
69281;SHT31;56392;51.082;17.080;2022-10-16T11:35:19;21.79;64.54
69281;SHT31;56392;51.082;17.080;2022-10-16T11:40:28;21.81;64.37
69281;SHT31;56392;51.082;17.080;2022-10-16T11:45:36;21.85;64.19
69281;SHT31;56392;51.082;17.080;2022-10-16T11:50:46;21.86;64.54
69281;SHT31;56392;51.082;17.080;2022-10-16T11:55:52;21.89;64.66
69281;SHT31;56392;51.082;17.080;2022-10-16T12:01:03;21.92;63.99
69281;SHT31;56392;51.082;17.080;2022-10-16T12:06:22;21.88;64.12
69281;SHT31;56392;51.082;17.080;2022-10-16T12:11:35;21.72;64.28
69281;SHT31;56392;51.082;17.080;2022-10-16T12:16:51;21.62;64.72
69281;SHT31;56392;51.082;17.080;2022-10-16T12:21:55;21.55;65.40
69281;SHT31;56392;51.082;17.080;2022-10-16T12:27:00;21.52;65.82
69281;SHT31;56392;51.082;17.080;2022-10-16T12:32:05;21.42;65.91
69281;SHT31;56392;51.082;17.080;2022-10-16T12:37:11;21.24;66.34
69281;SHT31;56392;51.082;17.080;2022-10-16T12:42:31;21.10;66.46
69281;SHT31;56392;51.082;17.080;2022-10-16T12:47:38;21.03;66.70
69281;SHT31;56392;51.082;17.080;2022-10-16T12:52:49;20.97;67.07
69281;SHT31;56392;51.082;17.080;2022-10-16T12:58:20;20.93;65.93
69281;SHT31;56392;51.082;17.080;2022-10-16T13:03:51;21.03;66.96
69281;SHT31;56392;51.082;17.080;2022-10-16T13:09:06;21.03;67.07
69281;SHT31;56392;51.082;17.080;2022-10-16T13:14:24;21.04;67.22
69281;SHT31;56392;51.082;17.080;2022-10-16T13:19:37;21.07;67.48
69281;SHT31;56392;51.082;17.080;2022-10-16T13:24:57;21.08;68.14
69281;SHT31;56392;51.082;17.080;2022-10-16T13:30:12;21.08;67.89
69281;SHT31;56392;51.082;17.080;2022-10-16T13:35:21;21.05;67.73
69281;SHT31;56392;51.082;17.080;2022-10-16T13:40:24;21.04;67.82
69281;SHT31;56392;51.082;17.080;2022-10-16T13:45:29;21.03;68.35
69281;SHT31;56392;51.082;17.080;2022-10-16T13:50:31;21.05;68.43
69281;SHT31;56392;51.082;17.080;2022-10-16T13:55:34;21.05;68.65
69281;SHT31;56392;51.082;17.080;2022-10-16T14:00:38;21.14;68.42
69281;SHT31;56392;51.082;17.080;2022-10-16T14:05:44;21.14;68.35
69281;SHT31;56392;51.082;17.080;2022-10-16T14:10:50;21.01;68.43
69281;SHT31;56392;51.082;17.080;2022-10-16T14:15:55;20.95;69.08
69281;SHT31;56392;51.082;17.080;2022-10-16T14:21:04;20.80;69.50
69281;SHT31;56392;51.082;17.080;2022-10-16T14:26:17;20.79;69.72
69281;SHT31;56392;51.082;17.080;2022-10-16T14:31:28;20.70;70.37
69281;SHT31;56392;51.082;17.080;2022-10-16T14:36:33;20.56;70.61
69281;SHT31;56392;51.082;17.080;2022-10-16T14:41:43;20.53;70.42
69281;SHT31;56392;51.082;17.080;2022-10-16T14:46:48;20.46;70.53
69281;SHT31;56392;51.082;17.080;2022-10-16T14:51:51;20.46;70.44
69281;SHT31;56392;51.082;17.080;2022-10-16T14:56:56;20.32;71.00
69281;SHT31;56392;51.082;17.080;2022-10-16T15:02:14;20.22;71.84
69281;SHT31;56392;51.082;17.080;2022-10-16T15:07:19;20.16;72.00
69281;SHT31;56392;51.082;17.080;2022-10-16T15:12:22;20.11;71.93
69281;SHT31;56392;51.082;17.080;2022-10-16T15:17:26;20.06;72.32
69281;SHT31;56392;51.082;17.080;2022-10-16T15:22:28;19.89;73.16
69281;SHT31;56392;51.082;17.080;2022-10-16T15:27:31;19.74;73.81
69281;SHT31;56392;51.082;17.080;2022-10-16T15:32:42;19.65;73.74
69281;SHT31;56392;51.082;17.080;2022-10-16T15:37:46;19.64;73.45
69281;SHT31;56392;51.082;17.080;2022-10-16T15:42:49;19.54;73.43
69281;SHT31;56392;51.082;17.080;2022-10-16T15:47:53;19.44;73.88
69281;SHT31;56392;51.082;17.080;2022-10-16T15:52:56;19.24;74.41
69281;SHT31;56392;51.082;17.080;2022-10-16T15:57:58;19.03;74.83
69281;SHT31;56392;51.082;17.080;2022-10-16T16:03:03;19.02;74.80
69281;SHT31;56392;51.082;17.080;2022-10-16T16:08:05;18.98;74.71
69281;SHT31;56392;51.082;17.080;2022-10-16T16:13:08;18.86;75.02
69281;SHT31;56392;51.082;17.080;2022-10-16T16:18:13;18.71;75.53
69281;SHT31;56392;51.082;17.080;2022-10-16T16:23:16;18.59;75.94
69281;SHT31;56392;51.082;17.080;2022-10-16T16:28:18;18.51;76.06
69281;SHT31;56392;51.082;17.080;2022-10-16T16:33:22;18.48;76.23
69281;SHT31;56392;51.082;17.080;2022-10-16T16:38:25;18.38;76.41
69281;SHT31;56392;51.082;17.080;2022-10-16T16:43:28;18.31;76.55
69281;SHT31;56392;51.082;17.080;2022-10-16T16:48:32;18.17;76.88
69281;SHT31;56392;51.082;17.080;2022-10-16T16:53:36;18.04;77.30
69281;SHT31;56392;51.082;17.080;2022-10-16T16:58:38;17.94;77.64
69281;SHT31;56392;51.082;17.080;2022-10-16T17:03:43;17.80;78.06
69281;SHT31;56392;51.082;17.080;2022-10-16T17:08:47;17.80;78.01
69281;SHT31;56392;51.082;17.080;2022-10-16T17:13:50;17.74;78.14
69281;SHT31;56392;51.082;17.080;2022-10-16T17:18:59;17.76;78.07
69281;SHT31;56392;51.082;17.080;2022-10-16T17:24:02;17.59;78.33
69281;SHT31;56392;51.082;17.080;2022-10-16T17:29:05;17.38;78.83
69281;SHT31;56392;51.082;17.080;2022-10-16T17:34:10;17.25;79.24
69281;SHT31;56392;51.082;17.080;2022-10-16T17:39:14;17.16;79.59
69281;SHT31;56392;51.082;17.080;2022-10-16T17:44:18;17.07;79.74
69281;SHT31;56392;51.082;17.080;2022-10-16T17:49:22;17.02;79.96
69281;SHT31;56392;51.082;17.080;2022-10-16T17:54:25;17.05;80.04
69281;SHT31;56392;51.082;17.080;2022-10-16T17:59:28;17.15;80.02
69281;SHT31;56392;51.082;17.080;2022-10-16T18:04:32;17.11;79.96
69281;SHT31;56392;51.082;17.080;2022-10-16T18:09:35;17.10;80.04
69281;SHT31;56392;51.082;17.080;2022-10-16T18:14:37;17.08;80.15
69281;SHT31;56392;51.082;17.080;2022-10-16T18:19:42;17.05;80.30
69281;SHT31;56392;51.082;17.080;2022-10-16T18:24:44;17.07;80.32
69281;SHT31;56392;51.082;17.080;2022-10-16T18:29:47;17.08;80.33
69281;SHT31;56392;51.082;17.080;2022-10-16T18:34:52;17.12;80.07
69281;SHT31;56392;51.082;17.080;2022-10-16T18:39:55;17.19;80.18
69281;SHT31;56392;51.082;17.080;2022-10-16T18:44:58;17.15;80.22
69281;SHT31;56392;51.082;17.080;2022-10-16T18:50:04;17.05;80.41
69281;SHT31;56392;51.082;17.080;2022-10-16T18:55:08;16.92;80.61
69281;SHT31;56392;51.082;17.080;2022-10-16T19:00:11;16.78;80.77
69281;SHT31;56392;51.082;17.080;2022-10-16T19:05:15;16.68;80.98
69281;SHT31;56392;51.082;17.080;2022-10-16T19:10:18;16.67;81.05
69281;SHT31;56392;51.082;17.080;2022-10-16T19:15:24;16.70;81.28
69281;SHT31;56392;51.082;17.080;2022-10-16T19:20:29;16.72;81.30
69281;SHT31;56392;51.082;17.080;2022-10-16T19:25:35;16.70;81.62
69281;SHT31;56392;51.082;17.080;2022-10-16T19:30:40;16.64;81.64
69281;SHT31;56392;51.082;17.080;2022-10-16T19:35:44;16.57;81.55
69281;SHT31;56392;51.082;17.080;2022-10-16T19:40:47;16.40;81.67
69281;SHT31;56392;51.082;17.080;2022-10-16T19:45:49;16.32;81.77
69281;SHT31;56392;51.082;17.080;2022-10-16T19:50:54;16.23;81.93
69281;SHT31;56392;51.082;17.080;2022-10-16T19:55:57;16.06;82.00
69281;SHT31;56392;51.082;17.080;2022-10-16T20:01:00;15.96;82.11
69281;SHT31;56392;51.082;17.080;2022-10-16T20:06:07;15.85;82.41
69281;SHT31;56392;51.082;17.080;2022-10-16T20:11:12;15.72;82.57
69281;SHT31;56392;51.082;17.080;2022-10-16T20:16:15;15.61;82.57
69281;SHT31;56392;51.082;17.080;2022-10-16T20:21:23;15.51;82.68
69281;SHT31;56392;51.082;17.080;2022-10-16T20:26:26;15.40;82.68
69281;SHT31;56392;51.082;17.080;2022-10-16T20:31:31;15.26;83.24
69281;SHT31;56392;51.082;17.080;2022-10-16T20:36:37;15.20;83.43
69281;SHT31;56392;51.082;17.080;2022-10-16T20:41:39;15.17;83.70
69281;SHT31;56392;51.082;17.080;2022-10-16T20:46:42;15.03;84.14
69281;SHT31;56392;51.082;17.080;2022-10-16T20:51:46;14.93;83.95
69281;SHT31;56392;51.082;17.080;2022-10-16T20:56:50;14.90;83.87
69281;SHT31;56392;51.082;17.080;2022-10-16T21:01:53;14.79;83.82
69281;SHT31;56392;51.082;17.080;2022-10-16T21:06:57;14.70;83.97
69281;SHT31;56392;51.082;17.080;2022-10-16T21:11:59;14.62;84.06
69281;SHT31;56392;51.082;17.080;2022-10-16T21:17:02;14.55;84.30
69281;SHT31;56392;51.082;17.080;2022-10-16T21:22:06;14.43;84.16
69281;SHT31;56392;51.082;17.080;2022-10-16T21:27:09;14.39;84.30
69281;SHT31;56392;51.082;17.080;2022-10-16T21:32:12;14.32;84.24
69281;SHT31;56392;51.082;17.080;2022-10-16T21:37:16;14.24;84.41
69281;SHT31;56392;51.082;17.080;2022-10-16T21:42:18;14.18;84.46
69281;SHT31;56392;51.082;17.080;2022-10-16T21:47:21;14.14;84.56
69281;SHT31;56392;51.082;17.080;2022-10-16T21:52:26;14.04;85.33
69281;SHT31;56392;51.082;17.080;2022-10-16T21:57:28;13.92;85.47
69281;SHT31;56392;51.082;17.080;2022-10-16T22:02:32;13.84;85.18
69281;SHT31;56392;51.082;17.080;2022-10-16T22:07:36;13.78;85.38
69281;SHT31;56392;51.082;17.080;2022-10-16T22:12:38;13.70;85.63
69281;SHT31;56392;51.082;17.080;2022-10-16T22:17:41;13.63;85.77
69281;SHT31;56392;51.082;17.080;2022-10-16T22:22:46;13.56;85.46
69281;SHT31;56392;51.082;17.080;2022-10-16T22:27:48;13.54;85.48
69281;SHT31;56392;51.082;17.080;2022-10-16T22:32:51;13.50;85.47
69281;SHT31;56392;51.082;17.080;2022-10-16T22:37:55;13.44;85.48
69281;SHT31;56392;51.082;17.080;2022-10-16T22:42:59;13.39;85.33
69281;SHT31;56392;51.082;17.080;2022-10-16T22:48:04;13.33;85.32
69281;SHT31;56392;51.082;17.080;2022-10-16T22:53:08;13.26;85.39
69281;SHT31;56392;51.082;17.080;2022-10-16T22:58:12;13.26;85.53
69281;SHT31;56392;51.082;17.080;2022-10-16T23:03:15;13.15;85.56
69281;SHT31;56392;51.082;17.080;2022-10-16T23:08:19;13.09;85.67
69281;SHT31;56392;51.082;17.080;2022-10-16T23:13:22;13.09;85.88
69281;SHT31;56392;51.082;17.080;2022-10-16T23:18:25;13.10;85.85
69281;SHT31;56392;51.082;17.080;2022-10-16T23:23:29;13.19;87.45
69281;SHT31;56392;51.082;17.080;2022-10-16T23:28:32;13.29;87.74
69281;SHT31;56392;51.082;17.080;2022-10-16T23:33:36;13.23;86.65
69281;SHT31;56392;51.082;17.080;2022-10-16T23:38:40;13.08;86.46
69281;SHT31;56392;51.082;17.080;2022-10-16T23:43:43;12.87;86.44
69281;SHT31;56392;51.082;17.080;2022-10-16T23:48:46;12.68;86.08
69281;SHT31;56392;51.082;17.080;2022-10-16T23:53:50;12.62;86.22
69281;SHT31;56392;51.082;17.080;2022-10-16T23:58:53;12.61;86.17
